sensor_id;sensor_type;location;lat;lon;timestamp;pressure;altitude;pressure_sealevel;temperature;humidity
12666;BME280;58531;59.050;17.416;2022-09-09T00:00:47;101676.22;;;10.41;74.41
12666;BME280;58531;59.050;17.416;2022-09-09T00:03:17;101669.38;;;10.40;74.14
12666;BME280;58531;59.050;17.416;2022-09-09T00:05:53;101668.22;;;10.41;73.54
12666;BME280;58531;59.050;17.416;2022-09-09T00:08:30;101676.97;;;10.42;73.74
12666;BME280;58531;59.050;17.416;2022-09-09T00:11:03;101674.72;;;10.40;73.43
12666;BME280;58531;59.050;17.416;2022-09-09T00:13:34;101668.22;;;10.41;72.79
12666;BME280;58531;59.050;17.416;2022-09-09T00:16:08;101661.28;;;10.44;73.06
12666;BME280;58531;59.050;17.416;2022-09-09T00:18:55;101659.03;;;10.42;73.42
12666;BME280;58531;59.050;17.416;2022-09-09T00:21:26;101660.19;;;10.41;72.94
12666;BME280;58531;59.050;17.416;2022-09-09T00:24:00;101656.75;;;10.41;72.68
12666;BME280;58531;59.050;17.416;2022-09-09T00:26:37;101651.84;;;10.39;73.10
12666;BME280;58531;59.050;17.416;2022-09-09T00:29:10;101651.50;;;10.37;73.26
12666;BME280;58531;59.050;17.416;2022-09-09T00:31:40;101648.34;;;10.42;72.22
12666;BME280;58531;59.050;17.416;2022-09-09T00:34:11;101651.03;;;10.42;72.03
12666;BME280;58531;59.050;17.416;2022-09-09T00:36:40;101640.34;;;10.42;72.35
12666;BME280;58531;59.050;17.416;2022-09-09T00:39:23;101640.34;;;10.42;71.98
12666;BME280;58531;59.050;17.416;2022-09-09T00:42:03;101632.31;;;10.42;71.94
12666;BME280;58531;59.050;17.416;2022-09-09T00:44:37;101625.81;;;10.43;71.51
12666;BME280;58531;59.050;17.416;2022-09-09T00:47:15;101626.91;;;10.46;71.84
12666;BME280;58531;59.050;17.416;2022-09-09T00:49:52;101628.06;;;10.45;72.04
12666;BME280;58531;59.050;17.416;2022-09-09T00:52:32;101629.66;;;10.42;72.12
12666;BME280;58531;59.050;17.416;2022-09-09T00:55:07;101630.81;;;10.41;72.01
12666;BME280;58531;59.050;17.416;2022-09-09T00:57:40;101628.97;;;10.38;72.27
12666;BME280;58531;59.050;17.416;2022-09-09T01:00:20;101626.69;;;10.37;72.31
12666;BME280;58531;59.050;17.416;2022-09-09T01:03:19;101618.78;;;10.30;72.60
12666;BME280;58531;59.050;17.416;2022-09-09T01:06:01;101618.88;;;10.26;72.71
12666;BME280;58531;59.050;17.416;2022-09-09T01:09:10;101628.09;;;10.22;73.31
12666;BME280;58531;59.050;17.416;2022-09-09T01:11:51;101623.50;;;10.22;72.85
12666;BME280;58531;59.050;17.416;2022-09-09T01:14:35;101622.34;;;10.23;73.18
12666;BME280;58531;59.050;17.416;2022-09-09T01:17:09;101625.72;;;10.27;73.17
12666;BME280;58531;59.050;17.416;2022-09-09T01:19:47;101618.88;;;10.26;73.72
12666;BME280;58531;59.050;17.416;2022-09-09T01:22:23;101621.00;;;10.35;72.71
12666;BME280;58531;59.050;17.416;2022-09-09T01:25:28;101618.28;;;10.38;72.62
12666;BME280;58531;59.050;17.416;2022-09-09T01:27:59;101610.28;;;10.38;72.83
12666;BME280;58531;59.050;17.416;2022-09-09T01:30:28;101605.63;;;10.42;72.68
12666;BME280;58531;59.050;17.416;2022-09-09T01:32:56;101610.97;;;10.42;72.80
12666;BME280;58531;59.050;17.416;2022-09-09T01:35:39;101603.63;;;10.46;72.75
12666;BME280;58531;59.050;17.416;2022-09-09T01:38:09;101610.81;;;10.49;73.03
12666;BME280;58531;59.050;17.416;2022-09-09T01:40:36;101608.56;;;10.48;73.16
12666;BME280;58531;59.050;17.416;2022-09-09T01:43:05;101599.78;;;10.47;73.44
12666;BME280;58531;59.050;17.416;2022-09-09T01:45:33;101595.59;;;10.46;73.16
12666;BME280;58531;59.050;17.416;2022-09-09T01:48:01;101594.06;;;10.49;73.19
12666;BME280;58531;59.050;17.416;2022-09-09T01:50:29;101589.44;;;10.49;73.38
12666;BME280;58531;59.050;17.416;2022-09-09T01:52:58;101586.38;;;10.51;73.33
12666;BME280;58531;59.050;17.416;2022-09-09T01:55:29;101587.94;;;10.48;73.67
12666;BME280;58531;59.050;17.416;2022-09-09T01:58:17;101591.09;;;10.43;73.80
12666;BME280;58531;59.050;17.416;2022-09-09T02:00:53;101582.41;;;10.39;73.97
12666;BME280;58531;59.050;17.416;2022-09-09T02:03:25;101579.88;;;10.32;74.60
12666;BME280;58531;59.050;17.416;2022-09-09T02:06:00;101584.63;;;10.21;75.16
12666;BME280;58531;59.050;17.416;2022-09-09T02:08:38;101577.50;;;10.15;75.56
12666;BME280;58531;59.050;17.416;2022-09-09T02:11:10;101583.31;;;10.10;75.78
12666;BME280;58531;59.050;17.416;2022-09-09T02:13:40;101583.38;;;10.06;76.33
12666;BME280;58531;59.050;17.416;2022-09-09T02:16:13;101584.88;;;10.07;76.07
12666;BME280;58531;59.050;17.416;2022-09-09T02:18:48;101582.31;;;10.00;76.75
12666;BME280;58531;59.050;17.416;2022-09-09T02:21:17;101581.94;;;9.98;76.65
12666;BME280;58531;59.050;17.416;2022-09-09T02:23:47;101581.16;;;10.01;76.96
12666;BME280;58531;59.050;17.416;2022-09-09T02:26:16;101584.81;;;10.11;76.81
12666;BME280;58531;59.050;17.416;2022-09-09T02:28:49;101583.13;;;10.20;76.76
12666;BME280;58531;59.050;17.416;2022-09-09T02:31:19;101578.34;;;10.31;76.37
12666;BME280;58531;59.050;17.416;2022-09-09T02:33:52;101580.13;;;10.38;76.26
12666;BME280;58531;59.050;17.416;2022-09-09T02:36:22;101582.41;;;10.39;76.43
12666;BME280;58531;59.050;17.416;2022-09-09T02:38:50;101582.41;;;10.39;76.15
12666;BME280;58531;59.050;17.416;2022-09-09T02:41:20;101571.66;;;10.43;76.45
12666;BME280;58531;59.050;17.416;2022-09-09T02:43:50;101577.06;;;10.39;76.33
12666;BME280;58531;59.050;17.416;2022-09-09T02:46:31;101576.66;;;10.41;76.57
12666;BME280;58531;59.050;17.416;2022-09-09T02:49:01;101572.88;;;10.38;77.02
12666;BME280;58531;59.050;17.416;2022-09-09T02:51:36;101569.53;;;10.34;77.21
12666;BME280;58531;59.050;17.416;2022-09-09T02:54:10;101570.75;;;10.30;77.45
12666;BME280;58531;59.050;17.416;2022-09-09T02:56:47;101566.28;;;10.23;77.29
12666;BME280;58531;59.050;17.416;2022-09-09T02:59:16;101569.16;;;10.13;78.07
12666;BME280;58531;59.050;17.416;2022-09-09T03:01:43;101566.53;;;10.09;78.45
12666;BME280;58531;59.050;17.416;2022-09-09T03:04:10;101562.00;;;10.06;78.72
12666;BME280;58531;59.050;17.416;2022-09-09T03:06:37;101562.91;;;9.96;78.75
12666;BME280;58531;59.050;17.416;2022-09-09T03:09:03;101556.31;;;9.81;79.22
12666;BME280;58531;59.050;17.416;2022-09-09T03:11:30;101556.66;;;9.60;79.76
12666;BME280;58531;59.050;17.416;2022-09-09T03:13:57;101560.22;;;9.50;80.58
12666;BME280;58531;59.050;17.416;2022-09-09T03:16:25;101549.44;;;9.35;81.20
12666;BME280;58531;59.050;17.416;2022-09-09T03:18:52;101548.84;;;9.24;81.98
12666;BME280;58531;59.050;17.416;2022-09-09T03:21:19;101552.00;;;9.15;82.36
12666;BME280;58531;59.050;17.416;2022-09-09T03:23:46;101553.34;;;9.00;83.19
12666;BME280;58531;59.050;17.416;2022-09-09T03:26:13;101544.00;;;8.89;84.03
12666;BME280;58531;59.050;17.416;2022-09-09T03:28:40;101542.53;;;8.84;83.82
12666;BME280;58531;59.050;17.416;2022-09-09T03:31:07;101548.63;;;8.81;84.15
12666;BME280;58531;59.050;17.416;2022-09-09T03:33:37;101547.81;;;8.88;84.12
12666;BME280;58531;59.050;17.416;2022-09-09T03:36:04;101547.03;;;8.91;83.78
12666;BME280;58531;59.050;17.416;2022-09-09T03:38:31;101545.94;;;8.85;84.23
12666;BME280;58531;59.050;17.416;2022-09-09T03:40:59;101540.75;;;8.74;84.29
12666;BME280;58531;59.050;17.416;2022-09-09T03:43:27;101546.50;;;8.69;84.49
12666;BME280;58531;59.050;17.416;2022-09-09T03:45:55;101544.25;;;8.68;84.39
12666;BME280;58531;59.050;17.416;2022-09-09T03:48:22;101549.13;;;8.73;84.40
12666;BME280;58531;59.050;17.416;2022-09-09T03:50:52;101541.88;;;8.77;84.10
12666;BME280;58531;59.050;17.416;2022-09-09T03:53:22;101545.69;;;8.76;84.17
12666;BME280;58531;59.050;17.416;2022-09-09T03:55:51;101542.66;;;8.74;83.81
12666;BME280;58531;59.050;17.416;2022-09-09T03:58:20;101542.00;;;8.66;83.88
12666;BME280;58531;59.050;17.416;2022-09-09T04:00:59;101547.34;;;8.63;83.66
12666;BME280;58531;59.050;17.416;2022-09-09T04:03:26;101537.13;;;8.58;83.42
12666;BME280;58531;59.050;17.416;2022-09-09T04:05:56;101534.19;;;8.49;83.76
12666;BME280;58531;59.050;17.416;2022-09-09T04:08:23;101529.34;;;8.40;84.50
12666;BME280;58531;59.050;17.416;2022-09-09T04:10:53;101534.00;;;8.33;84.63
12666;BME280;58531;59.050;17.416;2022-09-09T04:13:23;101537.50;;;8.26;84.54
12666;BME280;58531;59.050;17.416;2022-09-09T04:15:51;101536.03;;;8.22;84.93
12666;BME280;58531;59.050;17.416;2022-09-09T04:18:19;101544.03;;;8.15;84.89
12666;BME280;58531;59.050;17.416;2022-09-09T04:20:46;101543.38;;;8.04;85.29
12666;BME280;58531;59.050;17.416;2022-09-09T04:23:14;101540.00;;;8.00;85.36
12666;BME280;58531;59.050;17.416;2022-09-09T04:25:44;101544.59;;;7.96;85.49
12666;BME280;58531;59.050;17.416;2022-09-09T04:28:12;101538.16;;;7.94;85.48
12666;BME280;58531;59.050;17.416;2022-09-09T04:30:39;101533.69;;;7.87;85.93
12666;BME280;58531;59.050;17.416;2022-09-09T04:33:07;101538.28;;;7.83;86.00
12666;BME280;58531;59.050;17.416;2022-09-09T04:35:34;101536.34;;;7.84;85.87
12666;BME280;58531;59.050;17.416;2022-09-09T04:38:02;101531.09;;;7.80;85.53
12666;BME280;58531;59.050;17.416;2022-09-09T04:40:30;101537.84;;;7.88;85.27
12666;BME280;58531;59.050;17.416;2022-09-09T04:42:58;101538.16;;;7.94;85.05
12666;BME280;58531;59.050;17.416;2022-09-09T04:45:25;101535.84;;;7.99;85.07
12666;BME280;58531;59.050;17.416;2022-09-09T04:47:52;101533.16;;;8.03;84.42
12666;BME280;58531;59.050;17.416;2022-09-09T04:50:19;101535.03;;;8.06;84.30
12666;BME280;58531;59.050;17.416;2022-09-09T04:52:46;101542.91;;;8.16;83.71
12666;BME280;58531;59.050;17.416;2022-09-09T04:55:13;101535.97;;;8.29;83.33
12666;BME280;58531;59.050;17.416;2022-09-09T04:57:41;101536.25;;;8.38;82.86
12666;BME280;58531;59.050;17.416;2022-09-09T05:00:09;101540.78;;;8.41;83.03
12666;BME280;58531;59.050;17.416;2022-09-09T05:02:37;101536.13;;;8.45;82.82
12666;BME280;58531;59.050;17.416;2022-09-09T05:05:04;101539.16;;;8.47;83.06
12666;BME280;58531;59.050;17.416;2022-09-09T05:07:31;101545.91;;;8.55;82.76
12666;BME280;58531;59.050;17.416;2022-09-09T05:09:58;101542.78;;;8.63;82.45
12666;BME280;58531;59.050;17.416;2022-09-09T05:12:25;101546.03;;;8.78;81.99
12666;BME280;58531;59.050;17.416;2022-09-09T05:14:53;101547.81;;;8.88;81.77
12666;BME280;58531;59.050;17.416;2022-09-09T05:17:20;101546.91;;;8.98;81.04
12666;BME280;58531;59.050;17.416;2022-09-09T05:19:46;101545.22;;;9.11;80.84
12666;BME280;58531;59.050;17.416;2022-09-09T05:22:18;101548.13;;;9.20;80.59
12666;BME280;58531;59.050;17.416;2022-09-09T05:24:45;101547.94;;;9.34;80.13
12666;BME280;58531;59.050;17.416;2022-09-09T05:27:12;101542.03;;;9.45;80.42
12666;BME280;58531;59.050;17.416;2022-09-09T05:29:39;101552.91;;;9.58;79.87
12666;BME280;58531;59.050;17.416;2022-09-09T05:32:08;101558.28;;;9.77;79.29
12666;BME280;58531;59.050;17.416;2022-09-09T05:34:35;101556.44;;;10.20;78.19
12666;BME280;58531;59.050;17.416;2022-09-09T05:37:03;101547.47;;;11.56;74.53
12666;BME280;58531;59.050;17.416;2022-09-09T05:39:30;101553.75;;;13.19;68.84
12666;BME280;58531;59.050;17.416;2022-09-09T05:41:58;101554.13;;;14.78;63.11
12666;BME280;58531;59.050;17.416;2022-09-09T05:44:25;101558.41;;;16.39;56.86
12666;BME280;58531;59.050;17.416;2022-09-09T05:46:53;101558.41;;;17.39;52.59
12666;BME280;58531;59.050;17.416;2022-09-09T05:49:21;101563.03;;;18.90;48.31
12666;BME280;58531;59.050;17.416;2022-09-09T05:51:48;101557.84;;;19.75;46.31
12666;BME280;58531;59.050;17.416;2022-09-09T05:54:15;101566.44;;;20.59;43.75
12666;BME280;58531;59.050;17.416;2022-09-09T05:56:43;101558.13;;;19.77;44.55
12666;BME280;58531;59.050;17.416;2022-09-09T05:59:10;101559.63;;;17.85;48.38
12666;BME280;58531;59.050;17.416;2022-09-09T06:01:38;101557.66;;;16.11;51.81
12666;BME280;58531;59.050;17.416;2022-09-09T06:04:06;101557.22;;;15.07;55.51
12666;BME280;58531;59.050;17.416;2022-09-09T06:06:35;101549.31;;;14.73;57.47
12666;BME280;58531;59.050;17.416;2022-09-09T06:09:05;101550.56;;;14.60;57.73
12666;BME280;58531;59.050;17.416;2022-09-09T06:11:36;101554.56;;;14.34;58.87
12666;BME280;58531;59.050;17.416;2022-09-09T06:14:04;101556.31;;;14.71;60.21
12666;BME280;58531;59.050;17.416;2022-09-09T06:16:32;101565.28;;;15.95;54.92
12666;BME280;58531;59.050;17.416;2022-09-09T06:18:59;101556.59;;;15.82;54.91
12666;BME280;58531;59.050;17.416;2022-09-09T06:21:27;101562.69;;;15.25;55.53
12666;BME280;58531;59.050;17.416;2022-09-09T06:23:56;101562.19;;;14.78;57.70
12666;BME280;58531;59.050;17.416;2022-09-09T06:26:24;101563.03;;;15.93;55.28
12666;BME280;58531;59.050;17.416;2022-09-09T06:28:53;101554.66;;;17.37;50.41
12666;BME280;58531;59.050;17.416;2022-09-09T06:31:21;101564.28;;;19.58;44.71
12666;BME280;58531;59.050;17.416;2022-09-09T06:33:49;101565.19;;;20.09;42.78
12666;BME280;58531;59.050;17.416;2022-09-09T06:36:17;101564.44;;;18.86;45.36
12666;BME280;58531;59.050;17.416;2022-09-09T06:38:45;101567.72;;;18.08;47.61
12666;BME280;58531;59.050;17.416;2022-09-09T06:41:14;101559.31;;;16.95;49.53
12666;BME280;58531;59.050;17.416;2022-09-09T06:43:42;101562.56;;;16.13;52.03
12666;BME280;58531;59.050;17.416;2022-09-09T06:46:11;101561.56;;;15.35;53.43
12666;BME280;58531;59.050;17.416;2022-09-09T06:48:38;101562.13;;;14.69;55.29
12666;BME280;58531;59.050;17.416;2022-09-09T06:51:08;101560.84;;;14.52;57.14
12666;BME280;58531;59.050;17.416;2022-09-09T06:53:37;101556.84;;;14.35;56.92
12666;BME280;58531;59.050;17.416;2022-09-09T06:56:18;101562.00;;;14.73;56.82
12666;BME280;58531;59.050;17.416;2022-09-09T06:58:46;101561.31;;;14.60;55.36
12666;BME280;58531;59.050;17.416;2022-09-09T07:01:15;101564.81;;;14.69;55.81
12666;BME280;58531;59.050;17.416;2022-09-09T07:03:45;101572.22;;;15.17;54.26
12666;BME280;58531;59.050;17.416;2022-09-09T07:06:14;101566.22;;;15.13;54.89
12666;BME280;58531;59.050;17.416;2022-09-09T07:08:42;101574.97;;;15.74;53.97
12666;BME280;58531;59.050;17.416;2022-09-09T07:11:10;101573.91;;;15.72;51.21
12666;BME280;58531;59.050;17.416;2022-09-09T07:13:38;101569.94;;;15.37;53.38
12666;BME280;58531;59.050;17.416;2022-09-09T07:16:06;101573.47;;;14.95;53.89
12666;BME280;58531;59.050;17.416;2022-09-09T07:18:34;101569.53;;;15.17;53.94
12666;BME280;58531;59.050;17.416;2022-09-09T07:21:02;101588.81;;;15.46;53.86
12666;BME280;58531;59.050;17.416;2022-09-09T07:23:30;101583.25;;;15.40;52.12
12666;BME280;58531;59.050;17.416;2022-09-09T07:25:57;101584.31;;;15.43;52.94
12666;BME280;58531;59.050;17.416;2022-09-09T07:28:23;101586.72;;;15.41;53.00
12666;BME280;58531;59.050;17.416;2022-09-09T07:30:56;101585.47;;;16.71;49.19
12666;BME280;58531;59.050;17.416;2022-09-09T07:33:23;101584.69;;;17.85;47.06
12666;BME280;58531;59.050;17.416;2022-09-09T07:35:51;101573.00;;;17.33;47.27
12666;BME280;58531;59.050;17.416;2022-09-09T07:38:18;101579.03;;;16.68;48.19
12666;BME280;58531;59.050;17.416;2022-09-09T07:40:45;101575.19;;;16.43;48.62
12666;BME280;58531;59.050;17.416;2022-09-09T07:43:12;101580.69;;;15.76;50.93
12666;BME280;58531;59.050;17.416;2022-09-09T07:45:39;101588.84;;;15.64;51.70
12666;BME280;58531;59.050;17.416;2022-09-09T07:48:08;101583.84;;;15.93;51.63
12666;BME280;58531;59.050;17.416;2022-09-09T07:50:36;101579.38;;;16.35;50.80
12666;BME280;58531;59.050;17.416;2022-09-09T07:53:03;101584.78;;;16.53;48.93
12666;BME280;58531;59.050;17.416;2022-09-09T07:55:31;101573.59;;;16.86;49.78
12666;BME280;58531;59.050;17.416;2022-09-09T07:57:58;101570.66;;;17.17;47.71
12666;BME280;58531;59.050;17.416;2022-09-09T08:00:25;101572.09;;;16.85;48.54
12666;BME280;58531;59.050;17.416;2022-09-09T08:02:53;101592.81;;;16.70;48.70
12666;BME280;58531;59.050;17.416;2022-09-09T08:05:22;101589.22;;;16.64;48.28
12666;BME280;58531;59.050;17.416;2022-09-09T08:07:48;101588.34;;;15.96;49.20
12666;BME280;58531;59.050;17.416;2022-09-09T08:10:15;101585.78;;;15.35;50.81
12666;BME280;58531;59.050;17.416;2022-09-09T08:12:43;101599.56;;;15.37;52.99
12666;BME280;58531;59.050;17.416;2022-09-09T08:15:10;101591.69;;;15.51;50.88
12666;BME280;58531;59.050;17.416;2022-09-09T08:17:37;101598.63;;;15.79;50.54
12666;BME280;58531;59.050;17.416;2022-09-09T08:20:05;101593.34;;;15.67;50.78
12666;BME280;58531;59.050;17.416;2022-09-09T08:22:33;101604.78;;;16.07;49.12
12666;BME280;58531;59.050;17.416;2022-09-09T08:25:01;101601.94;;;16.01;49.72
12666;BME280;58531;59.050;17.416;2022-09-09T08:27:31;101606.50;;;15.65;49.71
12666;BME280;58531;59.050;17.416;2022-09-09T08:29:58;101599.50;;;15.28;51.98
12666;BME280;58531;59.050;17.416;2022-09-09T08:32:25;101595.31;;;15.27;52.86
12666;BME280;58531;59.050;17.416;2022-09-09T08:34:52;101596.72;;;15.98;50.58
12666;BME280;58531;59.050;17.416;2022-09-09T08:37:19;101597.03;;;16.00;49.67
12666;BME280;58531;59.050;17.416;2022-09-09T08:39:48;101592.66;;;15.75;50.88
12666;BME280;58531;59.050;17.416;2022-09-09T08:42:28;101601.09;;;15.47;51.85
12666;BME280;58531;59.050;17.416;2022-09-09T08:45:06;101595.63;;;15.29;51.35
12666;BME280;58531;59.050;17.416;2022-09-09T08:47:42;101601.16;;;15.04;52.34
12666;BME280;58531;59.050;17.416;2022-09-09T08:50:19;101598.09;;;15.45;52.71
12666;BME280;58531;59.050;17.416;2022-09-09T08:52:54;101611.06;;;15.86;50.76
12666;BME280;58531;59.050;17.416;2022-09-09T08:55:37;101589.59;;;15.55;51.04
12666;BME280;58531;59.050;17.416;2022-09-09T08:58:11;101594.13;;;15.28;50.92
12666;BME280;58531;59.050;17.416;2022-09-09T09:00:57;101605.59;;;15.50;51.13
12666;BME280;58531;59.050;17.416;2022-09-09T09:03:34;101605.25;;;15.39;50.42
12666;BME280;58531;59.050;17.416;2022-09-09T09:06:18;101614.28;;;15.24;50.69
12666;BME280;58531;59.050;17.416;2022-09-09T09:08:54;101610.97;;;15.50;50.76
12666;BME280;58531;59.050;17.416;2022-09-09T09:11:26;101605.97;;;15.88;49.51
12666;BME280;58531;59.050;17.416;2022-09-09T09:13:56;101597.88;;;15.79;50.00
12666;BME280;58531;59.050;17.416;2022-09-09T09:16:29;101597.44;;;15.89;49.44
12666;BME280;58531;59.050;17.416;2022-09-09T09:18:58;101602.72;;;16.02;48.37
12666;BME280;58531;59.050;17.416;2022-09-09T09:21:34;101612.88;;;15.98;50.17
12666;BME280;58531;59.050;17.416;2022-09-09T09:24:05;101597.72;;;15.73;49.97
12666;BME280;58531;59.050;17.416;2022-09-09T09:26:36;101600.28;;;15.86;49.42
12666;BME280;58531;59.050;17.416;2022-09-09T09:29:09;101594.69;;;15.62;48.88
12666;BME280;58531;59.050;17.416;2022-09-09T09:31:37;101591.63;;;15.42;49.07
12666;BME280;58531;59.050;17.416;2022-09-09T09:34:04;101586.19;;;14.94;50.69
12666;BME280;58531;59.050;17.416;2022-09-09T09:36:39;101586.97;;;15.04;51.96
12666;BME280;58531;59.050;17.416;2022-09-09T09:39:07;101580.19;;;14.90;51.39
12666;BME280;58531;59.050;17.416;2022-09-09T09:41:38;101582.34;;;14.74;52.08
12666;BME280;58531;59.050;17.416;2022-09-09T09:44:22;101580.25;;;15.30;54.07
12666;BME280;58531;59.050;17.416;2022-09-09T09:46:49;101576.00;;;15.68;50.01
12666;BME280;58531;59.050;17.416;2022-09-09T09:49:16;101576.22;;;16.27;49.10
12666;BME280;58531;59.050;17.416;2022-09-09T09:51:43;101577.81;;;16.78;48.23
12666;BME280;58531;59.050;17.416;2022-09-09T09:54:18;101565.19;;;16.93;45.74
12666;BME280;58531;59.050;17.416;2022-09-09T09:56:50;101574.56;;;17.16;46.87
12666;BME280;58531;59.050;17.416;2022-09-09T09:59:33;101572.44;;;16.60;47.05
12666;BME280;58531;59.050;17.416;2022-09-09T10:02:14;101564.94;;;16.64;47.61
12666;BME280;58531;59.050;17.416;2022-09-09T10:04:41;101557.22;;;16.40;47.57
12666;BME280;58531;59.050;17.416;2022-09-09T10:07:11;101562.28;;;16.29;49.22
12666;BME280;58531;59.050;17.416;2022-09-09T10:09:38;101561.84;;;16.21;49.51
12666;BME280;58531;59.050;17.416;2022-09-09T10:12:17;101560.66;;;16.31;48.93
12666;BME280;58531;59.050;17.416;2022-09-09T10:14:53;101566.47;;;15.85;49.30
12666;BME280;58531;59.050;17.416;2022-09-09T10:17:31;101566.09;;;15.56;50.77
12666;BME280;58531;59.050;17.416;2022-09-09T10:20:17;101550.09;;;15.52;50.40
12666;BME280;58531;59.050;17.416;2022-09-09T10:22:51;101548.56;;;15.42;50.97
12666;BME280;58531;59.050;17.416;2022-09-09T10:25:30;101563.09;;;15.15;51.88
12666;BME280;58531;59.050;17.416;2022-09-09T10:31:00;101551.94;;;15.25;51.91
12666;BME280;58531;59.050;17.416;2022-09-09T10:33:37;101546.91;;;15.06;51.13
12666;BME280;58531;59.050;17.416;2022-09-09T10:36:13;101549.47;;;15.09;51.90
12666;BME280;58531;59.050;17.416;2022-09-09T10:38:45;101560.53;;;15.02;52.03
12666;BME280;58531;59.050;17.416;2022-09-09T10:41:26;101549.88;;;14.99;52.13
12666;BME280;58531;59.050;17.416;2022-09-09T10:44:25;101545.91;;;15.12;52.61
12666;BME280;58531;59.050;17.416;2022-09-09T10:47:18;101547.72;;;15.24;51.70
12666;BME280;58531;59.050;17.416;2022-09-09T10:50:12;101553.25;;;15.51;51.62
12666;BME280;58531;59.050;17.416;2022-09-09T10:52:51;101561.06;;;15.85;51.19
12666;BME280;58531;59.050;17.416;2022-09-09T10:55:24;101556.41;;;15.67;49.61
12666;BME280;58531;59.050;17.416;2022-09-09T10:57:54;101548.78;;;15.75;50.22
12666;BME280;58531;59.050;17.416;2022-09-09T11:00:27;101557.91;;;15.68;51.79
12666;BME280;58531;59.050;17.416;2022-09-09T11:03:00;101547.88;;;15.69;51.95
12666;BME280;58531;59.050;17.416;2022-09-09T11:05:30;101552.78;;;15.52;51.46
12666;BME280;58531;59.050;17.416;2022-09-09T11:08:01;101548.63;;;15.21;51.92
12666;BME280;58531;59.050;17.416;2022-09-09T11:10:36;101538.09;;;15.05;52.61
12666;BME280;58531;59.050;17.416;2022-09-09T11:13:10;101544.97;;;15.06;53.34
12666;BME280;58531;59.050;17.416;2022-09-09T11:15:45;101545.03;;;15.24;53.05
12666;BME280;58531;59.050;17.416;2022-09-09T11:18:18;101538.84;;;15.36;52.40
12666;BME280;58531;59.050;17.416;2022-09-09T11:20:47;101536.94;;;15.54;53.69
12666;BME280;58531;59.050;17.416;2022-09-09T11:23:18;101537.41;;;15.53;53.01
12666;BME280;58531;59.050;17.416;2022-09-09T11:25:52;101539.66;;;15.24;53.17
12666;BME280;58531;59.050;17.416;2022-09-09T11:28:31;101533.97;;;15.22;53.40
12666;BME280;58531;59.050;17.416;2022-09-09T11:31:27;101536.47;;;15.56;53.66
12666;BME280;58531;59.050;17.416;2022-09-09T11:34:39;101534.00;;;16.06;53.17
12666;BME280;58531;59.050;17.416;2022-09-09T11:37:35;101530.84;;;16.26;51.72
12666;BME280;58531;59.050;17.416;2022-09-09T11:40:15;101547.47;;;16.33;52.11
12666;BME280;58531;59.050;17.416;2022-09-09T11:42:43;101528.75;;;16.39;52.11
12666;BME280;58531;59.050;17.416;2022-09-09T11:45:19;101527.97;;;16.56;51.63
12666;BME280;58531;59.050;17.416;2022-09-09T11:47:53;101532.66;;;16.38;52.03
12666;BME280;58531;59.050;17.416;2022-09-09T11:50:32;101522.16;;;16.49;52.83
12666;BME280;58531;59.050;17.416;2022-09-09T11:53:06;101516.75;;;16.49;52.29
12666;BME280;58531;59.050;17.416;2022-09-09T11:55:46;101508.97;;;16.42;52.52
12666;BME280;58531;59.050;17.416;2022-09-09T11:58:17;101515.16;;;16.74;51.85
12666;BME280;58531;59.050;17.416;2022-09-09T12:00:47;101522.44;;;16.92;52.17
12666;BME280;58531;59.050;17.416;2022-09-09T12:03:38;101499.09;;;16.48;52.47
12666;BME280;58531;59.050;17.416;2022-09-09T12:06:15;101506.44;;;16.11;53.26
12666;BME280;58531;59.050;17.416;2022-09-09T12:08:46;101510.47;;;15.71;54.50
12666;BME280;58531;59.050;17.416;2022-09-09T12:11:24;101515.59;;;16.05;54.32
12666;BME280;58531;59.050;17.416;2022-09-09T12:13:55;101501.41;;;16.63;53.78
12666;BME280;58531;59.050;17.416;2022-09-09T12:16:33;101509.31;;;17.64;51.90
12666;BME280;58531;59.050;17.416;2022-09-09T12:19:12;101507.56;;;17.84;49.67
12666;BME280;58531;59.050;17.416;2022-09-09T12:21:45;101507.94;;;17.92;49.51
12666;BME280;58531;59.050;17.416;2022-09-09T12:24:20;101500.25;;;17.76;49.58
12666;BME280;58531;59.050;17.416;2022-09-09T12:26:53;101501.38;;;17.84;49.42
12666;BME280;58531;59.050;17.416;2022-09-09T12:29:26;101510.94;;;17.71;50.04
12666;BME280;58531;59.050;17.416;2022-09-09T12:32:00;101512.59;;;17.68;50.40
12666;BME280;58531;59.050;17.416;2022-09-09T12:34:40;101509.84;;;17.77;50.16
12666;BME280;58531;59.050;17.416;2022-09-09T12:37:17;101515.09;;;17.81;49.55
12666;BME280;58531;59.050;17.416;2022-09-09T12:39:48;101501.75;;;17.54;50.98
12666;BME280;58531;59.050;17.416;2022-09-09T12:42:18;101520.97;;;17.23;51.45
12666;BME280;58531;59.050;17.416;2022-09-09T12:44:55;101511.00;;;17.06;52.70
12666;BME280;58531;59.050;17.416;2022-09-09T12:47:26;101508.50;;;16.93;52.28
12666;BME280;58531;59.050;17.416;2022-09-09T12:49:56;101505.59;;;16.64;53.15
12666;BME280;58531;59.050;17.416;2022-09-09T12:52:27;101509.69;;;16.51;52.72
12666;BME280;58531;59.050;17.416;2022-09-09T12:54:57;101506.03;;;16.81;53.06
12666;BME280;58531;59.050;17.416;2022-09-09T12:57:26;101508.25;;;17.47;52.65
12666;BME280;58531;59.050;17.416;2022-09-09T13:00:06;101510.69;;;17.83;50.05
12666;BME280;58531;59.050;17.416;2022-09-09T13:02:34;101511.28;;;17.64;50.95
12666;BME280;58531;59.050;17.416;2022-09-09T13:05:15;101508.13;;;17.65;50.05
12666;BME280;58531;59.050;17.416;2022-09-09T13:07:42;101509.81;;;17.07;51.40
12666;BME280;58531;59.050;17.416;2022-09-09T13:10:11;101516.47;;;16.47;53.46